Kyburz, CA

1:28 AM PDT on March 29, 2015 (GMT -0700)
MesoWest ALPHA CA US DRI | | Change Station
CLOSE
Current Station
Personal Weather Station
Location: Kyburz, CA
Elevation: 7657 ft
Nearby Weather Stations

Elev 7657 ft 38.80 °N, 120.22 °W | Updated 5 days ago

Clear
Clear
35 °F
Feels Like 35 °F
N
1
Wind Variable Wind from ESE
Gusts mph

Today
High -- | Low -- °F
--% Chance of Precip.
Yesterday
High -- | Low -- °F
Precip. -- in
6:50 AM 7:21 PM
Waxing Gibbous, 69% visible
Pressure 30.22 in
Visibility 10.0 miles
Clouds Clear
Dew Point 17 °F
Humidity 47%
Rainfall in
Snow Depth Not available.
UV 0 out of 12
Pollen 9.70 out of 12
Air Quality Not available.
Flu Activity Not available.
METAR KTVL 290753Z AUTO 18003KT 10SM CLR 02/M04 A3031 RMK AO2 SLP231 T00221039 401890017 $

More Conditions Fewer Conditions

Pressure 30.22 in
Visibility 10.0 miles
Clouds Clear
Dew Point 17 °F
Humidity 47%
Rainfall in
Snow Depth Not available.
UV 0 out of 12
Pollen 9.70 out of 12
Air Quality Not available.
Flu Activity Not available.
METAR KTVL 290753Z AUTO 18003KT 10SM CLR 02/M04 A3031 RMK AO2 SLP231 T00221039 401890017 $

More Conditions Fewer Conditions

10-Day Weather Forecast

Almanac

Astronomy

Mar. 29, 2015 Rise Set
Actual Time
Civil Twilight
Nautical Twilight
Astronomical Twilight
Moon
Length of Visible Light
Length of Day
Tomorrow will be .
, % of the Moon is Illuminated

Today's Extremes

State Highs State Lows

Community

WunderPhotos

Upload Photos

1,809,187 photos uploaded!

WunderBlogs® & News

Nearby

Air Quality

  Air Quality AQ Index Pollutant
Not available.

Snow Depth

Station Depth Elevation

Earthquake Activity

City Distance Mag. Time & Date
Minimum magnitude displayed is 2.5.

Coastal Water Temperatures

Place Temperature

Stations

Nearby Weather Stations

Station Location Temp. Windchill Dew Point Humidity Wind Precip. Elev Updated Type